Time;durP1;ratioP1;P1;durP2;ratioP2;P2;SDS_P1;SDS_P2;PMS_P1;PMS_P2;Temp;Humidity;BMP_temperature;BMP_pressure;BME280_temperature;BME280_humidity;BME280_pressure;Samples;Min_cycle;Max_cycle;Signal;HPM_P1;HPM_P2
2021/01/17 00:00:25;;;;;;;1.95;1.08;;;18.80;38.20;;;;;;5093725;28;20036;-81
2021/01/17 00:02:51;;;;;;;2.28;1.17;;;18.70;38.20;;;;;;5090953;28;20021;-82
2021/01/17 00:05:22;;;;;;;1.33;0.95;;;18.70;38.20;;;;;;5089029;28;20530;-81
2021/01/17 00:07:49;;;;;;;1.40;1.17;;;18.70;38.10;;;;;;5079346;28;20393;-80
2021/01/17 00:10:20;;;;;;;2.60;1.00;;;18.70;38.20;;;;;;5082160;28;20509;-81
2021/01/17 00:12:47;;;;;;;0.90;0.82;;;18.70;38.20;;;;;;5066888;28;20025;-81
2021/01/17 00:15:14;;;;;;;1.65;1.05;;;18.70;38.20;;;;;;5077523;28;20021;-81
2021/01/17 00:17:41;;;;;;;1.92;1.27;;;18.70;38.20;;;;;;5090198;28;20092;-83
2021/01/17 00:20:15;;;;;;;1.90;1.33;;;18.70;38.20;;;;;;5098673;28;20149;-82
2021/01/17 00:22:41;;;;;;;1.45;1.00;;;18.70;38.20;;;;;;5084412;28;20020;-81
2021/01/17 00:25:12;;;;;;;1.45;1.13;;;18.70;38.20;;;;;;5079886;28;20050;-81
2021/01/17 00:27:38;;;;;;;1.30;1.08;;;18.70;38.20;;;;;;5080311;28;20027;-81
2021/01/17 00:30:05;;;;;;;3.28;1.17;;;18.60;38.20;;;;;;5092813;28;20041;-79
2021/01/17 00:32:31;;;;;;;2.25;1.35;;;18.70;38.20;;;;;;5095481;28;20096;-82
2021/01/17 00:34:57;;;;;;;3.05;1.25;;;18.60;38.20;;;;;;5088560;28;20039;-81
2021/01/17 00:37:22;;;;;;;1.95;1.13;;;18.70;38.20;;;;;;5084891;28;20028;-80
2021/01/17 00:39:48;;;;;;;1.15;0.98;;;18.70;38.80;;;;;;5093043;28;20028;-80
2021/01/17 00:42:15;;;;;;;2.13;1.08;;;18.60;38.20;;;;;;5077743;28;20043;-81
2021/01/17 00:44:41;;;;;;;1.52;1.10;;;18.70;38.30;;;;;;5090115;28;20500;-82
2021/01/17 00:47:09;;;;;;;1.65;1.10;;;18.60;38.30;;;;;;5070875;28;20052;-80
2021/01/17 00:49:35;;;;;;;1.23;1.05;;;18.60;38.30;;;;;;5075315;28;20112;-80
2021/01/17 00:52:01;;;;;;;2.05;1.30;;;18.60;38.30;;;;;;5080225;28;20059;-80
2021/01/17 00:54:27;;;;;;;2.10;1.30;;;18.60;38.30;;;;;;5097170;28;20036;-81
2021/01/17 00:56:53;;;;;;;1.40;0.90;;;18.50;38.30;;;;;;5079618;28;20035;-79
2021/01/17 00:59:18;;;;;;;1.52;1.00;;;18.50;38.30;;;;;;5076422;28;20029;-81
2021/01/17 01:01:46;;;;;;;1.48;1.00;;;18.50;38.30;;;;;;5069349;28;20028;-81
2021/01/17 01:04:15;;;;;;;2.35;0.93;;;18.50;38.30;;;;;;5065176;28;20028;-80
2021/01/17 01:06:41;;;;;;;2.70;1.20;;;18.60;38.30;;;;;;5093805;28;20024;-81
2021/01/17 01:09:13;;;;;;;2.30;1.17;;;18.50;38.20;;;;;;5096498;28;20035;-81
2021/01/17 01:11:39;;;;;;;2.58;1.40;;;18.60;38.40;;;;;;5076934;28;20045;-81
2021/01/17 01:14:06;;;;;;;1.08;0.98;;;18.50;38.20;;;;;;5073108;28;20009;-79
2021/01/17 01:16:32;;;;;;;1.30;1.00;;;18.50;38.30;;;;;;5107337;28;20223;-80
2021/01/17 01:18:58;;;;;;;1.77;1.30;;;18.50;38.30;;;;;;5109841;28;20020;-81
2021/01/17 01:21:28;;;;;;;2.83;1.10;;;18.50;38.80;;;;;;5111787;28;20030;-81
2021/01/17 01:23:54;;;;;;;1.17;0.77;;;18.50;38.40;;;;;;5099356;28;20028;-80
2021/01/17 01:26:21;;;;;;;2.15;1.10;;;18.50;38.30;;;;;;5079996;28;20035;-82
2021/01/17 01:28:55;;;;;;;1.70;1.35;;;18.50;38.40;;;;;;5061079;28;20041;-81
2021/01/17 01:31:22;;;;;;;2.05;1.10;;;18.50;38.30;;;;;;5074579;28;20035;-81
2021/01/17 01:33:48;;;;;;;1.63;1.00;;;18.50;38.30;;;;;;5078964;28;20073;-80
2021/01/17 01:36:21;;;;;;;1.33;1.13;;;18.50;38.40;;;;;;5094865;28;20040;-81
2021/01/17 01:38:47;;;;;;;1.15;0.77;;;18.50;38.40;;;;;;5095821;28;20039;-81
2021/01/17 01:41:14;;;;;;;1.33;0.90;;;18.40;38.30;;;;;;5095163;28;20490;-81
2021/01/17 01:43:40;;;;;;;1.98;1.45;;;18.40;38.30;;;;;;5059576;28;20032;-80
2021/01/17 01:46:11;;;;;;;1.73;0.82;;;18.40;38.90;;;;;;5089882;28;20571;-81
2021/01/17 01:48:36;;;;;;;1.35;1.00;;;18.40;38.40;;;;;;5095663;28;20067;-81
2021/01/17 01:51:02;;;;;;;1.20;0.65;;;18.40;38.40;;;;;;5097255;28;20043;-81
2021/01/17 01:53:31;;;;;;;1.20;0.88;;;18.40;38.40;;;;;;5099185;28;20039;-80
2021/01/17 01:55:58;;;;;;;1.58;1.00;;;18.40;38.40;;;;;;5079567;28;20028;-80
2021/01/17 01:58:26;;;;;;;1.67;0.77;;;18.40;38.40;;;;;;5100338;28;20047;-81
2021/01/17 02:00:51;;;;;;;1.40;0.70;;;18.40;38.40;;;;;;5073688;28;20032;-81
2021/01/17 02:03:17;;;;;;;2.28;0.70;;;18.40;38.30;;;;;;5085533;28;20052;-81
2021/01/17 02:05:43;;;;;;;1.30;0.88;;;18.40;38.40;;;;;;5079132;28;20028;-81
2021/01/17 02:08:12;;;;;;;2.35;1.00;;;18.40;38.50;;;;;;5079073;28;20024;-81
2021/01/17 02:10:40;;;;;;;1.35;0.70;;;18.30;38.50;;;;;;5078620;28;20036;-80
2021/01/17 02:13:14;;;;;;;1.40;1.00;;;18.40;38.40;;;;;;5095123;28;20032;-81
2021/01/17 02:15:41;;;;;;;1.20;0.88;;;18.30;38.50;;;;;;5075682;28;20170;-80
2021/01/17 02:18:08;;;;;;;1.30;1.10;;;18.30;38.40;;;;;;5078828;28;20514;-80
2021/01/17 02:20:37;;;;;;;2.17;1.10;;;18.30;38.40;;;;;;5074195;28;20070;-80
2021/01/17 02:23:15;;;;;;;1.30;0.85;;;18.30;38.50;;;;;;5078425;28;20436;-80
2021/01/17 02:25:42;;;;;;;1.38;0.85;;;18.30;38.40;;;;;;5074762;28;20479;-81
2021/01/17 02:28:10;;;;;;;1.23;0.95;;;18.30;38.40;;;;;;5095419;28;20036;-81
2021/01/17 02:30:45;;;;;;;1.70;1.10;;;18.30;38.40;;;;;;5087547;28;20031;-80
2021/01/17 02:33:17;;;;;;;1.10;0.65;;;18.30;38.40;;;;;;5072299;28;20067;-81
2021/01/17 02:35:44;;;;;;;;;;;18.30;38.40;;;;;;5071258;28;20549;-81
2021/01/17 02:38:29;;;;;;;1.00;0.63;;;18.30;38.50;;;;;;5095436;28;19916;-81
2021/01/17 02:41:08;;;;;;;2.28;0.88;;;18.30;38.40;;;;;;5063978;28;20475;-81
2021/01/17 02:43:34;;;;;;;1.92;1.10;;;18.30;38.40;;;;;;5075032;28;20105;-81
2021/01/17 02:46:00;;;;;;;1.50;1.13;;;18.30;38.40;;;;;;5089469;28;20554;-82
2021/01/17 02:48:26;;;;;;;0.90;0.77;;;18.30;38.40;;;;;;5092692;28;20062;-81
2021/01/17 02:50:51;;;;;;;1.40;0.88;;;18.30;38.40;;;;;;5073288;28;20036;-80
2021/01/17 02:53:31;;;;;;;0.90;0.55;;;18.30;38.40;;;;;;5085795;28;20022;-80
2021/01/17 02:55:59;;;;;;;2.33;0.90;;;18.30;38.40;;;;;;5059813;28;20067;-80
2021/01/17 02:58:26;;;;;;;1.00;0.57;;;18.30;38.40;;;;;;5085131;28;20500;-81
2021/01/17 03:00:56;;;;;;;2.08;0.95;;;18.20;38.50;;;;;;5071420;28;20754;-81
2021/01/17 03:03:29;;;;;;;1.20;0.70;;;18.20;38.50;;;;;;5090348;28;20033;-80
2021/01/17 03:05:58;;;;;;;2.45;0.90;;;18.20;38.40;;;;;;5058495;28;20462;-80
2021/01/17 03:08:25;;;;;;;1.30;0.88;;;18.20;38.50;;;;;;5070146;28;20033;-81
2021/01/17 03:10:51;;;;;;;0.95;0.52;;;18.20;38.50;;;;;;5081192;28;20032;-80
2021/01/17 03:13:17;;;;;;;2.15;1.05;;;18.20;38.40;;;;;;5074792;28;20036;-80
2021/01/17 03:15:43;;;;;;;1.20;0.80;;;18.20;38.50;;;;;;5077164;28;20028;-81
2021/01/17 03:18:08;;;;;;;1.48;0.85;;;18.20;38.50;;;;;;5089159;28;20024;-82
2021/01/17 03:20:34;;;;;;;1.58;1.00;;;18.20;38.50;;;;;;5075734;28;20115;-81
2021/01/17 03:23:00;;;;;;;1.15;0.85;;;18.20;38.50;;;;;;5074322;28;20394;-81
2021/01/17 03:25:25;;;;;;;1.25;0.75;;;18.20;38.50;;;;;;5057761;28;20029;-82
2021/01/17 03:27:51;;;;;;;1.83;0.93;;;18.20;38.40;;;;;;5096282;28;20452;-81
2021/01/17 03:30:18;;;;;;;1.30;1.00;;;18.20;38.50;;;;;;5095505;28;20032;-81
2021/01/17 03:33:02;;;;;;;1.35;0.90;;;18.20;38.50;;;;;;5083268;28;20097;-81
2021/01/17 03:35:46;;;;;;;1.30;0.77;;;18.20;38.50;;;;;;5087116;28;20047;-82
2021/01/17 03:38:12;;;;;;;1.08;0.60;;;18.20;38.60;;;;;;5076898;28;20028;-81
2021/01/17 03:40:37;;;;;;;1.35;1.10;;;18.20;38.50;;;;;;5076969;28;20024;-81
2021/01/17 03:43:03;;;;;;;1.77;0.80;;;18.20;38.50;;;;;;5098211;28;20086;-81
2021/01/17 03:45:29;;;;;;;1.55;0.98;;;18.10;38.50;;;;;;5080717;28;20024;-82
2021/01/17 03:47:54;;;;;;;1.20;0.60;;;18.10;38.50;;;;;;5097581;28;20055;-81
2021/01/17 03:50:20;;;;;;;1.20;0.60;;;18.10;38.50;;;;;;5097540;28;20090;-81
2021/01/17 03:52:46;;;;;;;1.98;0.93;;;18.10;38.50;;;;;;5080715;28;20080;-80
2021/01/17 03:55:11;;;;;;;1.15;1.00;;;18.10;38.50;;;;;;5079355;28;20039;-82
2021/01/17 03:57:37;;;;;;;1.10;0.80;;;18.10;38.50;;;;;;5101742;28;20035;-81
2021/01/17 04:00:07;;;;;;;1.42;0.75;;;18.10;38.50;;;;;;5100007;28;20054;-82
2021/01/17 04:02:33;;;;;;;1.27;0.82;;;18.10;38.60;;;;;;5097917;28;20035;-81
2021/01/17 04:04:58;;;;;;;1.08;0.70;;;18.10;38.60;;;;;;5091144;28;20012;-80
2021/01/17 04:07:26;;;;;;;1.65;0.70;;;18.10;38.60;;;;;;5068533;28;20397;-81
2021/01/17 04:09:52;;;;;;;1.23;0.70;;;18.10;38.50;;;;;;5098295;28;20032;-82
2021/01/17 04:12:17;;;;;;;1.60;0.82;;;18.10;38.50;;;;;;5083623;28;20025;-82
2021/01/17 04:14:43;;;;;;;2.13;1.38;;;18.10;38.60;;;;;;5084169;28;20039;-81
2021/01/17 04:17:09;;;;;;;1.52;0.70;;;18.10;38.60;;;;;;5094371;28;20028;-81
2021/01/17 04:19:34;;;;;;;1.55;1.02;;;18.10;38.60;;;;;;5094400;28;20082;-81
2021/01/17 04:22:00;;;;;;;1.50;0.80;;;18.10;38.50;;;;;;5081199;28;20040;-82
2021/01/17 04:24:25;;;;;;;1.20;0.82;;;18.10;38.60;;;;;;5077881;28;20034;-81
2021/01/17 04:26:58;;;;;;;0.98;0.70;;;18.00;38.50;;;;;;5095329;28;20028;-82
2021/01/17 04:29:24;;;;;;;1.23;0.90;;;18.00;38.50;;;;;;5077212;28;20029;-81
2021/01/17 04:31:50;;;;;;;0.85;0.68;;;18.00;38.60;;;;;;5069596;28;20039;-81
2021/01/17 04:34:15;;;;;;;0.95;0.73;;;18.00;38.60;;;;;;5073829;28;20021;-82
2021/01/17 04:36:46;;;;;;;1.45;0.90;;;18.00;38.60;;;;;;5083883;28;20033;-82
2021/01/17 04:39:12;;;;;;;1.20;0.93;;;18.00;38.50;;;;;;5071895;28;20035;-80
2021/01/17 04:41:41;;;;;;;1.60;0.80;;;18.00;38.60;;;;;;5087239;28;20064;-81
2021/01/17 04:44:09;;;;;;;1.58;0.73;;;18.00;38.60;;;;;;5074264;28;20048;-80
2021/01/17 04:46:37;;;;;;;1.23;0.98;;;18.00;38.60;;;;;;5095351;28;20084;-80
2021/01/17 04:49:06;;;;;;;1.27;0.85;;;18.00;38.60;;;;;;5071714;28;20551;-81
2021/01/17 04:51:33;;;;;;;1.00;0.77;;;18.00;38.60;;;;;;5096559;28;20036;-81
2021/01/17 04:53:59;;;;;;;2.88;1.17;;;18.00;38.60;;;;;;5077986;28;20105;-81
2021/01/17 04:56:30;;;;;;;1.75;0.85;;;18.00;38.60;;;;;;5079448;28;20328;-81
2021/01/17 04:59:09;;;;;;;1.42;0.95;;;18.00;38.60;;;;;;5095796;28;20028;-80
2021/01/17 05:02:19;;;;;;;1.63;0.98;;;18.00;38.60;;;;;;5079079;28;20527;-81
2021/01/17 05:05:02;;;;;;;1.10;0.98;;;18.00;38.60;;;;;;5010366;28;20045;-80
2021/01/17 05:07:36;;;;;;;1.25;0.70;;;18.00;38.60;;;;;;5075163;28;20119;-80
2021/01/17 05:10:02;;;;;;;1.52;0.90;;;17.90;38.60;;;;;;5073527;28;20056;-80
2021/01/17 05:12:37;;;;;;;1.92;0.80;;;17.90;38.50;;;;;;5078426;28;20704;-80
2021/01/17 05:15:05;;;;;;;2.17;0.98;;;17.90;38.60;;;;;;5069095;28;20042;-80
2021/01/17 05:17:38;;;;;;;1.02;0.90;;;17.90;38.60;;;;;;5063548;28;20128;-80
2021/01/17 05:20:05;;;;;;;1.42;0.93;;;17.90;38.60;;;;;;5075932;28;20159;-80
2021/01/17 05:22:32;;;;;;;1.70;1.08;;;17.90;38.60;;;;;;5078912;28;20027;-79
2021/01/17 05:24:58;;;;;;;1.02;0.93;;;17.90;38.60;;;;;;5089484;28;20055;-80
2021/01/17 05:27:24;;;;;;;1.65;0.90;;;17.90;38.60;;;;;;5073473;28;20112;-80
2021/01/17 05:29:50;;;;;;;1.20;0.88;;;17.90;38.60;;;;;;5060288;28;20017;-81
2021/01/17 05:32:16;;;;;;;2.30;1.20;;;17.90;38.60;;;;;;5084329;28;20509;-80
2021/01/17 05:34:42;;;;;;;1.90;0.90;;;17.90;38.60;;;;;;5075962;28;20429;-80
2021/01/17 05:37:10;;;;;;;1.30;1.20;;;17.90;38.60;;;;;;5070682;28;20103;-80
2021/01/17 05:39:57;;;;;;;1.65;1.05;;;17.90;38.60;;;;;;5079194;28;20036;-81
2021/01/17 05:42:30;;;;;;;1.48;1.35;;;17.90;38.60;;;;;;5072693;28;20029;-81
2021/01/17 05:45:16;;;;;;;1.33;1.00;;;17.90;38.50;;;;;;5090645;28;20032;-80
2021/01/17 05:47:53;;;;;;;1.40;0.90;;;17.90;38.50;;;;;;5096325;28;20038;-81
2021/01/17 05:50:23;;;;;;;1.30;1.10;;;17.90;38.60;;;;;;5070084;28;20123;-79
2021/01/17 05:52:53;;;;;;;1.50;1.25;;;17.90;38.60;;;;;;5075692;28;20027;-80
2021/01/17 05:55:40;;;;;;;1.38;0.95;;;17.90;38.60;;;;;;5060886;28;20020;-81
2021/01/17 05:58:24;;;;;;;1.13;0.98;;;17.90;38.60;;;;;;5095038;28;20028;-82
2021/01/17 06:00:52;;;;;;;1.00;0.90;;;17.90;38.60;;;;;;5078861;28;20031;-80
2021/01/17 06:03:36;;;;;;;1.63;0.90;;;17.90;38.70;;;;;;5062736;28;20029;-80
2021/01/17 06:06:06;;;;;;;1.00;0.57;;;17.90;38.60;;;;;;5069973;28;20058;-80
2021/01/17 06:08:33;;;;;;;1.52;0.85;;;17.80;38.60;;;;;;5076220;28;20028;-81
2021/01/17 06:11:10;;;;;;;1.83;1.10;;;17.80;38.60;;;;;;5065360;28;20439;-82
2021/01/17 06:13:40;;;;;;;1.95;0.90;;;17.80;38.70;;;;;;5075291;28;20643;-81
2021/01/17 06:16:24;;;;;;;2.40;1.15;;;17.80;38.70;;;;;;5074104;28;20028;-81
2021/01/17 06:18:56;;;;;;;1.67;1.15;;;17.80;38.70;;;;;;5076391;28;20017;-81
2021/01/17 06:21:26;;;;;;;1.30;1.13;;;17.80;38.70;;;;;;5084563;28;20028;-81
2021/01/17 06:24:00;;;;;;;1.90;0.95;;;17.80;38.70;;;;;;5085790;28;20090;-79
2021/01/17 06:26:31;;;;;;;1.55;0.95;;;17.80;38.70;;;;;;5099322;28;20050;-82
2021/01/17 06:28:58;;;;;;;1.35;1.15;;;17.80;38.70;;;;;;5095986;28;20081;-81
2021/01/17 06:31:27;;;;;;;1.73;1.15;;;17.80;38.70;;;;;;5078613;28;20500;-80
2021/01/17 06:34:03;;;;;;;1.55;1.15;;;17.80;38.70;;;;;;5068294;28;20024;-81
2021/01/17 06:36:29;;;;;;;1.30;0.85;;;17.80;38.70;;;;;;5070864;28;20107;-81
2021/01/17 06:38:55;;;;;;;2.28;0.90;;;17.80;38.70;;;;;;5066817;28;20017;-81
2021/01/17 06:41:41;;;;;;;1.60;1.10;;;17.80;38.70;;;;;;5092417;28;20119;-81
2021/01/17 06:44:09;;;;;;;2.05;1.10;;;17.80;38.70;;;;;;5094300;28;20505;-81
2021/01/17 06:46:46;;;;;;;1.60;1.10;;;17.80;38.70;;;;;;5095283;28;20024;-81
2021/01/17 06:49:25;;;;;;;2.53;1.10;;;17.80;38.70;;;;;;5069218;28;20416;-81
2021/01/17 06:51:53;;;;;;;1.50;1.15;;;17.80;38.70;;;;;;5066500;28;20017;-80
2021/01/17 06:54:21;;;;;;;1.48;1.00;;;17.80;38.70;;;;;;5068103;28;20093;-82
2021/01/17 06:56:51;;;;;;;1.48;1.15;;;17.70;38.70;;;;;;5073626;28;20036;-81
2021/01/17 06:59:33;;;;;;;1.65;1.08;;;17.70;38.70;;;;;;5089614;28;20040;-82
2021/01/17 07:02:08;;;;;;;;;;;17.70;38.70;;;;;;5088785;28;20039;-80
2021/01/17 07:04:52;;;;;;;2.10;1.05;;;17.70;38.70;;;;;;5081400;28;19990;-80
2021/01/17 07:07:49;;;;;;;1.45;1.17;;;17.70;38.70;;;;;;5094766;28;20028;-81
2021/01/17 07:10:21;;;;;;;2.08;1.25;;;17.70;38.70;;;;;;5075720;28;20084;-81
2021/01/17 07:12:59;;;;;;;;;;;17.70;38.70;;;;;;5068201;28;20036;-82
2021/01/17 07:15:24;;;;;;;2.10;0.90;;;17.70;38.70;;;;;;5081388;28;19912;-81
2021/01/17 07:18:03;;;;;;;1.30;1.15;;;17.70;38.70;;;;;;5100981;28;20650;-80
2021/01/17 07:20:49;;;;;;;1.48;1.38;;;17.70;38.70;;;;;;5075207;28;20054;-82
2021/01/17 07:23:16;;;;;;;2.10;1.45;;;17.70;38.70;;;;;;5105753;28;20038;-80
2021/01/17 07:25:46;;;;;;;2.83;1.38;;;17.70;38.70;;;;;;5091421;28;20024;-80
2021/01/17 07:28:19;;;;;;;1.30;1.08;;;17.70;38.70;;;;;;5114337;28;20012;-81
2021/01/17 07:30:59;;;;;;;1.40;1.30;;;17.70;38.70;;;;;;5114763;28;20087;-81
2021/01/17 07:33:32;;;;;;;3.00;1.50;;;17.70;38.70;;;;;;5083314;28;20032;-81
2021/01/17 07:36:03;;;;;;;1.38;0.93;;;17.70;38.90;;;;;;5100664;28;20054;-80
2021/01/17 07:38:32;;;;;;;1.95;1.17;;;17.60;39.00;;;;;;5101332;28;20024;-81
2021/01/17 07:41:12;;;;;;;2.15;1.42;;;17.70;39.20;;;;;;5082807;28;20040;-79
2021/01/17 07:43:39;;;;;;;3.15;1.58;;;17.70;39.40;;;;;;5079993;28;20032;-80
2021/01/17 07:46:07;;;;;;;1.63;1.42;;;17.70;39.50;;;;;;5090384;28;20054;-82
2021/01/17 07:48:33;;;;;;;3.05;1.27;;;17.60;39.60;;;;;;5072820;28;20536;-81
2021/01/17 07:51:01;;;;;;;3.85;1.70;;;17.70;39.40;;;;;;5098610;28;20020;-83
2021/01/17 07:53:39;;;;;;;2.72;1.70;;;17.70;39.40;;;;;;5080049;28;20025;-85
2021/01/17 07:56:24;;;;;;;5.20;1.90;;;17.60;39.40;;;;;;5065876;28;20016;-82
2021/01/17 07:58:52;;;;;;;2.90;1.90;;;17.60;39.40;;;;;;5078481;28;20122;-83
2021/01/17 08:01:40;;;;;;;4.97;1.98;;;17.60;39.30;;;;;;5098519;28;20036;-83
2021/01/17 08:04:05;;;;;;;3.90;2.10;;;17.60;39.20;;;;;;5099011;28;20099;-85
2021/01/17 08:06:34;;;;;;;3.42;2.70;;;17.70;39.20;;;;;;5079174;28;20047;-83
2021/01/17 08:09:09;;;;;;;4.70;3.05;;;17.60;39.10;;;;;;5072086;28;20033;-84
2021/01/17 08:11:51;;;;;;;4.30;2.85;;;17.60;39.00;;;;;;5090413;28;20034;-81
2021/01/17 08:14:36;;;;;;;5.15;2.67;;;17.60;39.00;;;;;;5077458;28;20047;-83
2021/01/17 08:17:12;;;;;;;4.35;2.97;;;17.60;39.00;;;;;;5084649;28;20460;-84
2021/01/17 08:19:42;;;;;;;4.20;2.72;;;17.60;38.90;;;;;;5076495;28;20627;-82
2021/01/17 08:22:16;;;;;;;3.92;2.30;;;17.60;38.80;;;;;;5093569;28;20050;-83
2021/01/17 08:24:43;;;;;;;3.25;2.65;;;17.70;38.90;;;;;;5096863;28;20092;-83
2021/01/17 08:27:09;;;;;;;3.38;3.08;;;17.60;38.80;;;;;;5080788;28;20033;-84
2021/01/17 08:30:10;;;;;;;4.35;2.22;;;17.60;38.80;;;;;;5079612;28;20051;-82
2021/01/17 08:32:48;;;;;;;3.92;2.95;;;17.60;38.80;;;;;;5081800;28;20044;-80
2021/01/17 08:35:19;;;;;;;5.50;3.00;;;17.60;38.80;;;;;;5101824;28;20024;-83
2021/01/17 08:38:06;;;;;;;5.22;3.45;;;17.60;38.80;;;;;;5089782;28;20023;-80
2021/01/17 08:40:32;;;;;;;5.40;3.08;;;17.60;38.80;;;;;;5089839;28;20028;-83
2021/01/17 08:43:09;;;;;;;4.18;2.78;;;17.60;38.80;;;;;;5098658;28;20111;-84
2021/01/17 08:45:36;;;;;;;2.45;2.25;;;17.60;38.80;;;;;;5094082;28;20024;-82
2021/01/17 08:48:25;;;;;;;2.03;1.83;;;17.60;38.80;;;;;;5081376;28;20024;-80
2021/01/17 08:51:12;;;;;;;3.47;2.78;;;17.60;38.80;;;;;;5090088;28;20035;-83
2021/01/17 08:53:38;;;;;;;2.53;2.05;;;17.60;38.70;;;;;;5075011;28;20221;-84
2021/01/17 08:56:19;;;;;;;2.50;1.85;;;17.50;38.70;;;;;;5064947;28;20059;-82
2021/01/17 08:58:53;;;;;;;4.37;2.90;;;17.60;38.80;;;;;;5077990;28;20027;-83
2021/01/17 09:01:20;;;;;;;4.78;2.33;;;17.60;38.80;;;;;;5066303;28;20034;-83
2021/01/17 09:03:46;;;;;;;4.93;2.83;;;17.60;38.70;;;;;;5080734;28;20031;-82
2021/01/17 09:06:11;;;;;;;4.05;2.17;;;17.60;38.70;;;;;;5092845;28;20032;-81
2021/01/17 09:08:39;;;;;;;3.10;2.83;;;17.60;38.80;;;;;;5095000;28;20024;-82
2021/01/17 09:11:29;;;;;;;4.65;2.72;;;17.60;38.70;;;;;;5081354;28;20032;-81
2021/01/17 09:14:11;;;;;;;3.20;2.72;;;17.50;38.70;;;;;;5089534;28;20259;-83
2021/01/17 09:16:49;;;;;;;4.45;2.80;;;17.60;38.80;;;;;;5066968;28;20028;-81
2021/01/17 09:19:17;;;;;;;4.03;2.63;;;17.50;38.70;;;;;;5088733;28;20084;-82
2021/01/17 09:21:43;;;;;;;3.55;3.05;;;17.60;38.80;;;;;;5068936;28;20524;-82
2021/01/17 09:24:14;;;;;;;3.40;2.80;;;17.60;38.70;;;;;;5072749;28;20040;-83
2021/01/17 09:26:43;;;;;;;3.90;2.67;;;17.50;38.70;;;;;;5063335;28;20025;-83
2021/01/17 09:29:18;;;;;;;4.70;2.90;;;17.50;38.70;;;;;;5087930;28;20481;-82
2021/01/17 09:31:55;;;;;;;4.15;3.45;;;17.50;38.70;;;;;;5061254;28;20043;-82
2021/01/17 09:34:27;;;;;;;3.17;2.80;;;17.60;38.80;;;;;;5079767;28;20020;-82
2021/01/17 09:36:54;;;;;;;3.75;2.25;;;17.50;39.20;;;;;;5072549;28;20032;-80
2021/01/17 09:39:32;;;;;;;4.15;2.47;;;17.50;38.70;;;;;;5083804;28;20040;-82
2021/01/17 09:41:59;;;;;;;4.35;3.40;;;17.50;38.70;;;;;;5072411;28;20120;-80
2021/01/17 09:44:25;;;;;;;5.50;3.15;;;17.50;38.70;;;;;;5075205;28;20028;-83
2021/01/17 09:46:50;;;;;;;2.53;2.33;;;17.50;38.70;;;;;;5088902;28;20120;-84
2021/01/17 09:49:21;;;;;;;4.45;3.33;;;17.50;38.70;;;;;;5072957;28;20028;-82
2021/01/17 09:51:47;;;;;;;3.47;3.17;;;17.50;38.70;;;;;;5086377;28;20502;-81
2021/01/17 09:54:13;;;;;;;5.30;3.65;;;17.50;38.70;;;;;;5074329;28;20032;-82
2021/01/17 09:56:41;;;;;;;3.92;3.53;;;17.50;38.70;;;;;;5090096;28;20096;-83
2021/01/17 09:59:14;;;;;;;4.75;3.25;;;17.50;38.70;;;;;;5073815;28;20167;-81
2021/01/17 10:01:41;;;;;;;4.30;3.47;;;17.50;38.70;;;;;;5073845;28;20036;-83
2021/01/17 10:04:07;;;;;;;4.68;3.33;;;17.60;38.80;;;;;;5079939;28;20063;-83
2021/01/17 10:06:34;;;;;;;4.20;3.58;;;17.50;38.80;;;;;;5077779;28;20039;-80
2021/01/17 10:09:00;;;;;;;4.68;3.72;;;17.70;38.90;;;;;;5066677;28;20036;-82
2021/01/17 10:11:44;;;;;;;3.13;2.83;;;17.80;38.70;;;;;;5092083;28;20039;-81
2021/01/17 10:14:31;;;;;;;3.28;2.97;;;17.90;38.50;;;;;;5097213;28;20031;-79
2021/01/17 10:17:16;;;;;;;4.57;3.50;;;18.10;38.20;;;;;;5091341;28;20035;-81
2021/01/17 10:19:46;;;;;;;3.83;3.17;;;18.20;38.10;;;;;;5085575;28;20020;-82
2021/01/17 10:22:16;;;;;;;3.88;2.97;;;18.30;37.90;;;;;;5077999;28;20032;-82
2021/01/17 10:24:42;;;;;;;3.30;2.83;;;18.40;37.80;;;;;;5089142;28;20024;-83
2021/01/17 10:27:09;;;;;;;3.58;3.28;;;18.50;37.60;;;;;;5078001;28;20032;-81
2021/01/17 10:29:38;;;;;;;3.85;2.83;;;18.60;37.40;;;;;;5067859;28;20029;-84
2021/01/17 10:32:28;;;;;;;3.40;3.08;;;18.70;37.30;;;;;;5081566;28;20099;-82
2021/01/17 10:34:54;;;;;;;5.22;3.08;;;18.70;37.30;;;;;;5076879;28;20021;-81
2021/01/17 10:37:21;;;;;;;3.40;3.10;;;18.80;37.20;;;;;;5078030;28;20020;-83
2021/01/17 10:39:46;;;;;;;5.88;3.17;;;18.90;37.20;;;;;;5088693;28;20016;-82
2021/01/17 10:42:29;;;;;;;3.42;3.03;;;18.90;37.10;;;;;;5070717;28;20025;-82
2021/01/17 10:44:59;;;;;;;4.10;2.53;;;18.90;37.10;;;;;;5080822;28;20020;-83
2021/01/17 10:47:35;;;;;;;3.88;3.28;;;19.00;37.10;;;;;;5085796;28;20022;-82
2021/01/17 10:50:06;;;;;;;3.35;3.05;;;19.00;37.20;;;;;;5084966;28;20064;-80
2021/01/17 10:52:34;;;;;;;4.25;3.42;;;19.00;37.20;;;;;;5078373;28;20031;-81
2021/01/17 10:55:04;;;;;;;5.65;3.38;;;19.00;37.30;;;;;;5096931;28;20036;-81
2021/01/17 10:57:30;;;;;;;4.05;3.55;;;19.00;37.40;;;;;;5080042;28;20048;-81
2021/01/17 10:59:56;;;;;;;3.72;3.38;;;18.90;37.40;;;;;;5085560;28;20051;-81
2021/01/17 11:02:24;;;;;;;4.82;3.25;;;18.90;37.50;;;;;;5076368;28;20032;-82
2021/01/17 11:04:50;;;;;;;4.10;3.28;;;18.90;37.60;;;;;;5077090;28;20029;-81
2021/01/17 11:07:25;;;;;;;3.20;2.90;;;18.80;37.60;;;;;;5067469;28;20034;-80
2021/01/17 11:09:50;;;;;;;4.55;3.35;;;18.80;37.70;;;;;;5070794;28;20028;-79
2021/01/17 11:12:36;;;;;;;4.10;3.63;;;18.80;37.70;;;;;;5078239;28;20365;-83
2021/01/17 11:15:08;;;;;;;3.80;3.17;;;18.80;37.80;;;;;;5072582;28;20088;-81
2021/01/17 11:17:35;;;;;;;4.45;3.08;;;18.70;37.80;;;;;;5078320;28;20088;-79
2021/01/17 11:20:08;;;;;;;4.50;3.60;;;18.70;37.80;;;;;;5077332;28;20035;-80
2021/01/17 11:22:34;;;;;;;4.75;3.50;;;18.70;37.90;;;;;;5069239;28;20534;-81
2021/01/17 11:25:00;;;;;;;4.63;3.20;;;18.70;37.90;;;;;;5067176;28;20123;-82
2021/01/17 11:27:37;;;;;;;4.32;3.90;;;18.70;37.90;;;;;;5082667;28;20108;-81
2021/01/17 11:30:06;;;;;;;5.35;3.67;;;18.60;37.90;;;;;;5099119;28;20032;-81
2021/01/17 11:32:36;;;;;;;5.25;3.55;;;18.60;38.00;;;;;;5077821;28;20048;-82
2021/01/17 11:35:02;;;;;;;4.35;3.92;;;18.60;38.10;;;;;;5087337;28;20028;-82
2021/01/17 11:37:36;;;;;;;5.28;3.53;;;18.60;38.10;;;;;;5060209;28;20111;-81
2021/01/17 11:40:07;;;;;;;3.75;3.35;;;18.50;38.10;;;;;;5075058;28;20110;-82
2021/01/17 11:42:33;;;;;;;5.55;3.30;;;18.50;38.20;;;;;;5070481;28;20021;-83
2021/01/17 11:45:13;;;;;;;4.95;3.47;;;18.50;38.20;;;;;;5087508;28;20027;-82
2021/01/17 11:47:42;;;;;;;5.25;3.42;;;18.50;38.20;;;;;;5083291;28;20048;-82
2021/01/17 11:50:19;;;;;;;4.88;3.55;;;18.50;38.30;;;;;;5095462;28;20060;-82
2021/01/17 11:53:01;;;;;;;3.75;2.88;;;18.50;38.30;;;;;;5066256;28;20031;-82
2021/01/17 11:55:27;;;;;;;;;;;18.40;38.40;;;;;;5099354;28;20115;-80
2021/01/17 11:58:13;;;;;;;4.13;3.22;;;18.40;38.40;;;;;;5080515;28;19908;-83
2021/01/17 12:00:51;;;;;;;4.47;2.95;;;18.40;38.40;;;;;;5099145;28;20058;-82
2021/01/17 12:03:26;;;;;;;3.83;3.47;;;18.40;38.50;;;;;;5081294;28;20389;-80
2021/01/17 12:06:00;;;;;;;4.53;3.22;;;18.40;38.50;;;;;;5069396;28;20033;-81
2021/01/17 12:08:46;;;;;;;4.28;3.30;;;18.40;38.50;;;;;;5070108;28;20032;-80
2021/01/17 12:11:24;;;;;;;3.85;3.38;;;18.40;38.50;;;;;;5077724;28;20047;-82
2021/01/17 12:13:52;;;;;;;3.75;3.28;;;18.40;38.50;;;;;;5078543;28;20029;-82
2021/01/17 12:16:26;;;;;;;4.20;3.28;;;18.40;38.60;;;;;;5072982;28;20024;-81
2021/01/17 12:18:52;;;;;;;4.32;3.70;;;18.30;38.50;;;;;;5073602;28;20477;-82
2021/01/17 12:21:22;;;;;;;5.20;4.00;;;18.30;38.60;;;;;;5098634;28;20050;-82
2021/01/17 12:23:48;;;;;;;4.65;3.78;;;18.30;38.60;;;;;;5078372;28;20024;-80
2021/01/17 12:26:16;;;;;;;5.40;3.15;;;18.30;38.60;;;;;;5082127;28;20098;-82
2021/01/17 12:28:41;;;;;;;4.70;3.63;;;18.30;38.60;;;;;;5071020;28;20039;-83
2021/01/17 12:31:11;;;;;;;5.15;3.85;;;18.20;38.60;;;;;;5083541;28;20055;-81
2021/01/17 12:33:38;;;;;;;4.75;3.60;;;18.30;38.60;;;;;;5099061;28;20507;-81
2021/01/17 12:36:11;;;;;;;5.05;3.83;;;18.20;38.60;;;;;;5075980;28;20407;-81
2021/01/17 12:38:38;;;;;;;4.50;4.05;;;18.20;38.60;;;;;;5069409;28;20108;-80
2021/01/17 12:41:15;;;;;;;4.03;3.63;;;18.20;38.60;;;;;;5077721;28;20020;-81
2021/01/17 12:43:42;;;;;;;4.63;3.90;;;18.20;38.60;;;;;;5089998;28;20548;-81
2021/01/17 12:46:09;;;;;;;5.10;3.67;;;18.20;38.70;;;;;;5099326;28;20028;-82
2021/01/17 12:48:35;;;;;;;5.03;4.45;;;18.20;38.70;;;;;;5091771;28;20138;-80
2021/01/17 12:51:02;;;;;;;3.95;3.47;;;18.20;38.70;;;;;;5091518;28;20561;-80
2021/01/17 12:53:28;;;;;;;3.60;3.30;;;18.30;38.70;;;;;;5095559;28;20029;-80
2021/01/17 12:55:55;;;;;;;4.35;3.65;;;18.50;38.40;;;;;;5098400;28;20434;-83
2021/01/17 12:58:21;;;;;;;4.15;3.75;;;18.70;38.10;;;;;;5074240;28;20032;-84
2021/01/17 13:00:50;;;;;;;6.25;3.80;;;18.80;38.00;;;;;;5076942;28;20082;-82
2021/01/17 13:03:16;;;;;;;5.32;3.60;;;19.00;38.10;;;;;;5083741;28;20037;-83
2021/01/17 13:05:42;;;;;;;4.30;3.05;;;19.20;37.90;;;;;;5094249;28;20024;-83